Time;durP1;ratioP1;P1;durP2;ratioP2;P2;SDS_P1;SDS_P2;PMS_P1;PMS_P2;Temp;Humidity;BMP_temperature;BMP_pressure;BME280_temperature;BME280_humidity;BME280_pressure;Samples;Min_cycle;Max_cycle;Signal;HPM_P1;HPM_P2
2022/12/31 00:01:46;;;;;;;29.45;21.87;;;;;;;8.33;62.59;102483.03;1691532;83;21038;-57
2022/12/31 00:04:13;;;;;;;31.37;22.82;;;;;;;8.31;62.80;102499.00;1690385;83;21097;-57
2022/12/31 00:06:40;;;;;;;30.05;22.35;;;;;;;8.30;63.04;102508.95;1692317;84;21063;-57
2022/12/31 00:09:07;;;;;;;33.65;22.42;;;;;;;8.31;63.21;102510.67;1694938;84;21140;-57
2022/12/31 00:11:34;;;;;;;30.20;22.90;;;;;;;8.33;63.26;102517.63;1694810;83;21523;-57
2022/12/31 00:14:01;;;;;;;29.50;22.40;;;;;;;8.34;63.31;102525.88;1692782;83;21007;-57
2022/12/31 00:16:32;;;;;;;30.52;22.37;;;;;;;8.36;63.46;102520.70;1692008;83;21070;-57
2022/12/31 00:18:59;;;;;;;29.57;22.32;;;;;;;8.39;63.59;102522.06;1689140;83;21566;-57
2022/12/31 00:21:28;;;;;;;27.90;22.00;;;;;;;8.43;63.58;102516.08;1692007;83;21054;-57
2022/12/31 00:23:55;;;;;;;29.80;21.90;;;;;;;8.46;63.44;102516.10;1692902;83;21010;-57
2022/12/31 00:26:26;;;;;;;29.98;22.35;;;;;;;8.49;63.49;102526.54;1713405;80;21039;-57
2022/12/31 00:28:54;;;;;;;29.07;22.85;;;;;;;8.52;63.47;102534.34;1746565;80;21066;-57
2022/12/31 00:31:26;;;;;;;29.57;23.22;;;;;;;8.55;63.50;102535.26;1745033;80;21070;-57
2022/12/31 00:33:53;;;;;;;30.23;23.12;;;;;;;8.60;63.35;102528.42;1742508;80;21014;-59
2022/12/31 00:36:24;;;;;;;30.62;22.62;;;;;;;8.65;63.02;102528.50;1741633;81;21010;-57
2022/12/31 00:38:52;;;;;;;29.85;22.10;;;;;;;8.66;62.79;102531.11;1739646;81;21537;-57
2022/12/31 00:41:19;;;;;;;30.72;22.22;;;;;;;8.65;62.70;102525.91;1749732;80;21530;-57
2022/12/31 00:43:46;;;;;;;31.20;22.17;;;;;;;8.63;62.75;102526.31;1744326;80;21010;-57
2022/12/31 00:46:13;;;;;;;26.97;22.58;;;;;;;8.65;62.69;102532.39;1743378;80;21066;-57
2022/12/31 00:48:39;;;;;;;29.90;23.30;;;;;;;8.67;62.55;102524.20;1743565;80;21078;-57
2022/12/31 00:51:09;;;;;;;26.73;21.97;;;;;;;8.69;62.38;102528.57;1733367;81;21082;-57
2022/12/31 00:53:35;;;;;;;29.12;22.42;;;;;;;8.75;62.09;102532.97;1733795;81;20999;-57
2022/12/31 00:56:05;;;;;;;26.62;21.60;;;;;;;8.80;61.44;102533.88;1735757;81;21050;-57
2022/12/31 00:58:33;;;;;;;28.73;22.65;;;;;;;8.86;61.07;102528.80;1736778;81;21025;-57
2022/12/31 01:01:16;;;;;;;35.05;25.48;;;;;;;8.89;60.60;102532.72;1736208;81;21006;-57
2022/12/31 01:03:43;;;;;;;39.08;28.17;;;;;;;8.90;60.41;102541.82;1700204;84;21051;-57
2022/12/31 01:06:10;;;;;;;34.70;26.70;;;;;;;8.91;60.27;102545.30;1704516;82;21151;-57
2022/12/31 01:08:37;;;;;;;32.03;24.77;;;;;;;8.90;60.18;102544.41;1702043;82;21059;-57
2022/12/31 01:14:05;;;;;;;31.15;22.45;;;;;;;8.88;60.02;102542.68;1654123;85;21591;-57
2022/12/31 01:16:39;;;;;;;28.05;21.23;;;;;;;8.87;59.98;102546.11;1609908;88;21082;-57
2022/12/31 01:19:10;;;;;;;28.75;21.82;;;;;;;8.86;59.78;102554.77;1607510;88;21071;-57
2022/12/31 01:21:38;;;;;;;27.77;19.62;;;;;;;8.85;59.66;102556.90;1609485;88;21021;-57
2022/12/31 01:24:06;;;;;;;24.47;18.35;;;;;;;8.81;59.34;102561.19;1609750;88;21127;-57
2022/12/31 01:26:34;;;;;;;25.43;19.80;;;;;;;8.81;58.97;102565.49;1609445;88;21010;-57
2022/12/31 01:29:01;;;;;;;22.05;18.40;;;;;;;8.79;58.90;102560.70;1609454;88;21064;-57
2022/12/31 01:31:27;;;;;;;24.63;18.85;;;;;;;8.78;58.89;102558.95;1609743;88;21117;-57
2022/12/31 01:33:54;;;;;;;22.07;18.02;;;;;;;8.76;58.87;102559.34;1609791;88;21062;-58
2022/12/31 01:36:23;;;;;;;22.82;18.42;;;;;;;8.75;58.82;102564.99;1609831;89;21597;-57
2022/12/31 01:38:50;;;;;;;24.27;18.05;;;;;;;8.73;58.88;102562.80;1609919;88;21535;-57
2022/12/31 01:41:19;;;;;;;23.85;18.52;;;;;;;8.73;58.69;102559.33;1642162;86;21069;-57
2022/12/31 01:44:14;;;;;;;20.92;17.67;;;;;;;8.71;58.54;102554.12;1653200;85;21034;-57
2022/12/31 01:46:48;;;;;;;22.58;18.32;;;;;;;8.70;58.34;102555.37;1655212;85;21022;-57
2022/12/31 01:49:44;;;;;;;22.58;17.30;;;;;;;8.67;58.17;102556.64;1658471;85;21518;-57
2022/12/31 01:52:27;;;;;;;23.83;17.67;;;;;;;8.63;58.15;102556.16;1662629;83;21078;-57
2022/12/31 01:55:24;;;;;;;21.33;17.48;;;;;;;8.58;58.01;102560.38;1649876;86;21054;-57
2022/12/31 01:57:53;;;;;;;22.50;18.48;;;;;;;8.52;57.98;102558.58;1574288;90;21134;-58
2022/12/31 02:00:19;;;;;;;22.10;18.30;;;;;;;8.45;57.96;102559.33;1574610;90;21066;-57
2022/12/31 02:02:46;;;;;;;25.80;19.98;;;;;;;8.42;58.00;102563.60;1574935;90;21608;-57
2022/12/31 02:05:27;;;;;;;26.00;19.87;;;;;;;8.38;57.92;102564.41;1577130;88;21067;-57
2022/12/31 02:07:54;;;;;;;29.15;22.00;;;;;;;8.36;57.83;102571.28;1560490;91;21637;-57
2022/12/31 02:10:20;;;;;;;34.18;25.00;;;;;;;8.33;57.66;102581.18;1533132;93;21094;-57
2022/12/31 02:12:47;;;;;;;31.35;23.80;;;;;;;8.30;57.65;102581.56;1561335;91;21077;-57
2022/12/31 02:15:16;;;;;;;32.73;23.87;;;;;;;8.28;57.66;102583.26;1530617;93;21534;-57
2022/12/31 02:17:54;;;;;;;33.65;23.38;;;;;;;8.25;57.65;102581.48;1563405;91;21084;-57
2022/12/31 02:20:46;;;;;;;33.73;23.30;;;;;;;8.21;57.60;102584.42;1506197;93;22478;-57
2022/12/31 02:23:38;;;;;;;34.98;23.47;;;;;;;8.16;57.56;102574.38;1453892;97;21143;-57
2022/12/31 02:26:49;;;;;;;33.20;22.77;;;;;;;8.11;57.69;102579.93;1455701;97;22366;-57
2022/12/31 02:29:55;;;;;;;28.95;21.25;;;;;;;8.08;57.85;102578.56;1471137;96;21120;-57
2022/12/31 02:32:39;;;;;;;31.90;21.60;;;;;;;8.04;57.81;102581.95;1481840;96;21153;-57
2022/12/31 02:35:23;;;;;;;29.70;21.95;;;;;;;8.01;57.37;102576.73;1481668;96;21600;-57
2022/12/31 02:37:53;;;;;;;29.02;22.00;;;;;;;7.98;57.39;102576.66;1496616;95;21142;-57
2022/12/31 02:40:21;;;;;;;29.75;21.75;;;;;;;7.95;57.49;102579.22;1496740;95;21134;-57
2022/12/31 02:42:47;;;;;;;28.07;21.23;;;;;;;7.93;57.72;102580.88;1497658;95;21097;-57
2022/12/31 02:45:18;;;;;;;28.60;21.15;;;;;;;7.93;57.84;102597.72;1495313;95;21170;-57
2022/12/31 02:48:18;;;;;;;27.32;20.27;;;;;;;7.93;57.92;102606.80;1492023;96;21576;-57
2022/12/31 02:50:56;;;;;;;27.40;19.57;;;;;;;7.94;57.89;102598.61;1512562;91;21193;-57
2022/12/31 02:54:14;;;;;;;24.87;19.42;;;;;;;7.92;57.74;102592.11;1546059;91;21110;-57
2022/12/31 02:56:58;;;;;;;24.50;18.32;;;;;;;7.90;57.66;102598.98;1556593;91;21074;-57
2022/12/31 03:02:19;;;;;;;24.52;18.92;;;;;;;7.88;57.75;102609.75;1558420;91;21086;-57
2022/12/31 03:04:53;;;;;;;22.02;18.15;;;;;;;7.88;57.63;102601.97;1552411;91;21062;-57
2022/12/31 03:07:26;;;;;;;25.35;19.50;;;;;;;7.87;57.57;102612.31;1561403;90;21102;-57
2022/12/31 03:09:52;;;;;;;24.07;19.15;;;;;;;7.81;57.65;102614.34;1554907;90;21081;-57
2022/12/31 03:15:18;;;;;;;24.18;18.62;;;;;;;7.70;57.74;102622.36;1557756;90;21597;-57
2022/12/31 03:17:39;;;;;;;23.60;18.85;;;;;;;7.66;57.63;102630.92;1581784;87;21712;-57
2022/12/31 03:22:51;;;;;;;23.25;18.20;;;;;;;7.62;57.81;102625.23;1643480;86;21089;-57
2022/12/31 03:25:33;;;;;;;23.83;18.85;;;;;;;7.60;57.88;102626.91;1624750;88;21107;-57
2022/12/31 03:28:07;;;;;;;22.85;18.82;;;;;;;7.60;57.94;102629.50;1688157;85;21058;-57
2022/12/31 03:30:34;;;;;;;22.40;18.25;;;;;;;7.60;57.96;102626.91;1664963;86;21109;-57
2022/12/31 03:33:01;;;;;;;23.22;18.20;;;;;;;7.60;58.03;102628.62;1664984;86;21106;-57
2022/12/31 03:35:28;;;;;;;23.05;17.32;;;;;;;7.55;58.41;102632.82;1716464;82;21082;-57
2022/12/31 03:37:55;;;;;;;23.62;19.17;;;;;;;7.49;58.50;102633.58;1724043;82;21023;-57
2022/12/31 03:40:24;;;;;;;26.60;18.35;;;;;;;7.49;58.45;102636.17;1723162;82;21522;-57
2022/12/31 03:42:50;;;;;;;21.87;17.82;;;;;;;7.51;58.52;102640.96;1724407;82;21026;-57
2022/12/31 03:45:17;;;;;;;23.12;18.00;;;;;;;7.54;58.32;102636.27;1726476;82;21079;-57
2022/12/31 03:47:44;;;;;;;24.02;18.62;;;;;;;7.56;58.17;102643.23;1726567;82;21078;-58
2022/12/31 03:50:11;;;;;;;26.73;20.75;;;;;;;7.57;58.07;102643.67;1727777;82;21206;-57
2022/12/31 03:52:38;;;;;;;30.10;22.70;;;;;;;7.57;58.04;102642.38;1739862;82;21017;-57
2022/12/31 03:55:06;;;;;;;31.90;22.62;;;;;;;7.57;58.05;102646.68;1740368;82;21037;-57
2022/12/31 03:57:33;;;;;;;25.20;20.57;;;;;;;7.53;57.85;102644.45;1741471;81;21545;-57
2022/12/31 04:00:00;;;;;;;24.35;19.67;;;;;;;7.50;57.73;102643.08;1740884;81;21042;-57
2022/12/31 04:02:26;;;;;;;25.08;20.10;;;;;;;7.46;57.78;102643.86;1738760;82;21030;-57
2022/12/31 04:04:54;;;;;;;24.55;19.55;;;;;;;7.43;58.12;102643.81;1729550;81;21034;-57
2022/12/31 04:07:20;;;;;;;25.50;19.60;;;;;;;7.42;58.26;102642.05;1736037;82;21042;-57
2022/12/31 04:09:47;;;;;;;22.90;19.07;;;;;;;7.41;58.32;102636.44;1739895;82;21025;-57
2022/12/31 04:12:14;;;;;;;23.85;19.05;;;;;;;7.40;58.42;102641.14;1738316;81;21007;-57
2022/12/31 04:14:41;;;;;;;24.47;18.57;;;;;;;7.39;58.29;102642.88;1737225;81;21478;-58
2022/12/31 04:17:07;;;;;;;22.37;18.55;;;;;;;7.39;58.30;102648.48;1703262;84;21022;-57
2022/12/31 04:19:34;;;;;;;24.92;19.57;;;;;;;7.38;58.33;102651.89;1673817;84;21115;-57
2022/12/31 04:22:01;;;;;;;22.87;18.12;;;;;;;7.36;58.34;102655.75;1671942;85;21495;-57
2022/12/31 04:24:29;;;;;;;22.85;18.82;;;;;;;7.36;58.21;102660.05;1671185;85;21585;-57
2022/12/31 04:26:56;;;;;;;24.95;19.87;;;;;;;7.35;57.94;102657.91;1672439;85;21066;-57
2022/12/31 04:29:23;;;;;;;24.45;19.27;;;;;;;7.35;57.73;102654.02;1741153;81;21046;-57
2022/12/31 04:31:49;;;;;;;23.90;18.95;;;;;;;7.35;57.76;102659.61;1741507;81;21003;-57
2022/12/31 04:34:16;;;;;;;22.67;17.77;;;;;;;7.35;57.96;102662.20;1741605;81;21545;-57
2022/12/31 04:36:43;;;;;;;22.40;18.52;;;;;;;7.34;57.95;102666.91;1741776;81;21043;-57
2022/12/31 04:39:09;;;;;;;22.32;17.82;;;;;;;7.33;58.15;102669.95;1743423;82;21042;-58
2022/12/31 04:41:37;;;;;;;33.78;22.40;;;;;;;7.32;58.27;102661.71;1743961;82;21062;-57
2022/12/31 04:44:04;;;;;;;30.12;21.75;;;;;;;7.34;58.32;102673.39;1744708;81;21518;-57
2022/12/31 04:46:32;;;;;;;25.80;19.60;;;;;;;7.33;58.28;102667.77;1743131;81;20979;-57
2022/12/31 04:48:58;;;;;;;26.93;19.65;;;;;;;7.32;58.15;102678.55;1741214;81;21042;-57
2022/12/31 04:51:27;;;;;;;27.00;19.82;;;;;;;7.31;58.00;102672.05;1744788;80;21062;-57
2022/12/31 04:53:54;;;;;;;26.27;20.17;;;;;;;7.30;57.96;102670.28;1746317;80;21057;-58
2022/12/31 04:56:20;;;;;;;24.92;19.55;;;;;;;7.30;58.01;102681.93;1746594;80;21026;-58
2022/12/31 04:58:47;;;;;;;26.30;20.32;;;;;;;7.26;58.10;102677.53;1748114;80;21482;-57
2022/12/31 05:01:13;;;;;;;26.87;20.12;;;;;;;7.24;58.12;102680.50;1749690;80;21030;-57
2022/12/31 05:03:40;;;;;;;24.82;19.77;;;;;;;7.21;58.23;102680.45;1745218;81;21081;-57
2022/12/31 05:06:14;;;;;;;24.70;18.87;;;;;;;7.17;58.29;102681.22;1749949;80;21038;-57
2022/12/31 05:08:41;;;;;;;26.62;19.65;;;;;;;7.15;58.27;102680.31;1748751;80;21022;-57
2022/12/31 05:11:08;;;;;;;23.83;18.55;;;;;;;7.13;58.35;102689.31;1746716;80;21074;-57
2022/12/31 05:13:36;;;;;;;24.23;18.98;;;;;;;7.13;58.53;102682.00;1746840;80;21549;-57
2022/12/31 05:16:03;;;;;;;24.95;19.73;;;;;;;7.12;58.68;102678.94;1746605;80;21058;-57
2022/12/31 05:18:31;;;;;;;26.07;19.85;;;;;;;7.11;58.55;102674.17;1745378;80;21625;-57
2022/12/31 05:20:58;;;;;;;22.45;18.15;;;;;;;7.11;58.40;102675.91;1750034;80;21427;-57
2022/12/31 05:23:24;;;;;;;26.50;19.98;;;;;;;7.10;58.39;102671.55;1748919;80;21053;-57
2022/12/31 05:25:51;;;;;;;26.02;20.35;;;;;;;7.09;58.52;102680.18;1746915;80;21085;-57
2022/12/31 05:28:18;;;;;;;24.05;19.75;;;;;;;7.08;58.74;102681.00;1749093;80;21070;-58
2022/12/31 05:30:47;;;;;;;24.82;21.33;;;;;;;7.05;59.42;102687.39;1745339;81;21022;-57
2022/12/31 05:33:14;;;;;;;25.30;20.30;;;;;;;6.99;59.86;102692.42;1751389;80;20966;-57
2022/12/31 05:35:41;;;;;;;30.90;22.22;;;;;;;6.98;60.18;102692.87;1746364;80;21008;-57
2022/12/31 05:38:07;;;;;;;27.50;21.60;;;;;;;6.98;60.41;102697.16;1746640;80;21034;-57
2022/12/31 05:40:36;;;;;;;28.75;22.37;;;;;;;6.97;60.70;102705.34;1746980;80;21489;-57
2022/12/31 05:43:02;;;;;;;28.98;21.57;;;;;;;6.96;60.89;102705.31;1746400;80;20979;-57
2022/12/31 05:45:30;;;;;;;26.57;21.85;;;;;;;6.92;61.26;102712.13;1747459;80;21058;-57
2022/12/31 05:47:56;;;;;;;28.15;21.73;;;;;;;6.89;61.48;102712.05;1749907;80;20983;-57
2022/12/31 05:50:23;;;;;;;28.92;22.98;;;;;;;6.86;61.80;102718.87;1747665;80;21062;-57
2022/12/31 05:52:51;;;;;;;31.35;23.38;;;;;;;6.80;62.30;102723.89;1732976;81;21090;-57
2022/12/31 05:55:18;;;;;;;28.73;22.45;;;;;;;6.77;62.83;102722.50;1735384;81;21094;-58
2022/12/31 05:57:44;;;;;;;27.52;21.80;;;;;;;6.79;63.06;102718.25;1735657;82;21030;-57
2022/12/31 06:00:13;;;;;;;28.87;22.85;;;;;;;6.86;63.14;102721.45;1736750;81;21463;-57
2022/12/31 06:02:40;;;;;;;30.20;23.42;;;;;;;6.92;63.29;102718.60;1736764;81;20991;-57
2022/12/31 06:05:08;;;;;;;26.80;22.42;;;;;;;6.96;63.41;102728.60;1726349;81;21096;-57
2022/12/31 06:07:35;;;;;;;30.15;23.25;;;;;;;6.98;63.54;102741.16;1733211;81;21530;-57
2022/12/31 06:10:05;;;;;;;29.23;24.37;;;;;;;7.00;63.70;102732.60;1736750;81;20995;-57
2022/12/31 06:12:32;;;;;;;30.80;24.85;;;;;;;7.05;63.67;102735.27;1736800;81;21069;-58
2022/12/31 06:14:59;;;;;;;30.32;24.80;;;;;;;7.09;63.75;102743.59;1734142;81;21090;-57
2022/12/31 06:17:28;;;;;;;27.95;23.18;;;;;;;7.10;63.90;102751.80;1735233;81;21039;-57
2022/12/31 06:19:54;;;;;;;33.18;24.37;;;;;;;7.12;63.92;102752.30;1734038;82;21050;-57
2022/12/31 06:22:21;;;;;;;31.60;25.60;;;;;;;7.11;64.09;102758.75;1737392;81;21459;-57
2022/12/31 06:24:47;;;;;;;31.85;24.18;;;;;;;7.09;64.31;102757.84;1736377;81;21019;-57
2022/12/31 06:27:14;;;;;;;30.72;24.20;;;;;;;7.11;64.55;102759.59;1733684;81;21031;-57
2022/12/31 06:29:40;;;;;;;34.38;25.70;;;;;;;7.12;64.79;102761.78;1733143;81;20995;-57
2022/12/31 06:32:07;;;;;;;34.10;26.73;;;;;;;7.15;64.93;102768.34;1733577;81;21545;-57
2022/12/31 06:34:34;;;;;;;32.28;26.90;;;;;;;7.21;65.12;102773.66;1731177;81;21038;-57
2022/12/31 06:37:01;;;;;;;33.42;26.30;;;;;;;7.27;65.24;102776.39;1736635;81;21085;-57
2022/12/31 06:39:27;;;;;;;35.55;28.35;;;;;;;7.33;65.31;102776.53;1740355;81;21572;-58
2022/12/31 06:41:54;;;;;;;35.25;26.77;;;;;;;7.41;65.23;102778.88;1735262;81;21077;-58
2022/12/31 06:44:21;;;;;;;32.05;26.42;;;;;;;7.49;65.11;102778.64;1735959;81;21010;-57
2022/12/31 06:46:49;;;;;;;34.35;27.75;;;;;;;7.58;65.08;102784.04;1736708;81;21027;-57
2022/12/31 06:49:16;;;;;;;37.85;28.67;;;;;;;7.67;64.90;102789.41;1735774;81;21064;-57
2022/12/31 06:51:44;;;;;;;39.92;30.48;;;;;;;7.76;64.76;102800.41;1733860;81;21106;-57
2022/12/31 06:54:12;;;;;;;44.23;32.70;;;;;;;7.87;64.58;102802.38;1733445;81;21049;-57
2022/12/31 06:56:40;;;;;;;37.00;28.50;;;;;;;7.96;64.30;102802.58;1733423;81;20995;-57
2022/12/31 06:59:19;;;;;;;35.05;26.90;;;;;;;8.05;63.97;102812.28;1733642;81;21607;-57
2022/12/31 07:01:56;;;;;;;35.10;27.02;;;;;;;8.13;63.47;102812.90;1693209;83;21046;-57
2022/12/31 07:04:57;;;;;;;37.48;28.30;;;;;;;8.21;62.96;102817.81;1641715;86;21074;-57
2022/12/31 07:07:33;;;;;;;37.42;29.27;;;;;;;8.30;62.66;102821.47;1654853;86;21586;-57
2022/12/31 07:10:20;;;;;;;36.53;28.23;;;;;;;8.36;62.18;102809.92;1643060;86;21542;-57
2022/12/31 07:13:22;;;;;;;34.35;27.55;;;;;;;8.40;61.99;102804.83;1640638;86;21106;-57
2022/12/31 07:16:07;;;;;;;36.13;28.25;;;;;;;8.46;61.77;102814.03;1645478;86;21565;-57
2022/12/31 07:19:09;;;;;;;33.02;26.30;;;;;;;8.53;61.74;102825.41;1614890;88;21088;-57
2022/12/31 07:21:39;;;;;;;35.68;27.37;;;;;;;8.58;61.59;102835.44;1629212;88;21601;-57
2022/12/31 07:24:07;;;;;;;35.25;28.07;;;;;;;8.63;61.24;102837.71;1629828;88;21601;-57
2022/12/31 07:26:51;;;;;;;35.83;27.87;;;;;;;8.62;60.95;102837.24;1628640;88;21514;-57
2022/12/31 07:29:39;;;;;;;35.80;27.98;;;;;;;8.58;60.89;102831.54;1627695;88;21070;-57
2022/12/31 07:32:20;;;;;;;38.23;28.67;;;;;;;8.55;60.85;102832.80;1546290;92;21630;-57
2022/12/31 07:35:17;;;;;;;35.15;28.45;;;;;;;8.54;60.95;102834.92;1533841;92;21090;-57
2022/12/31 07:38:13;;;;;;;37.70;29.20;;;;;;;8.58;60.94;102835.44;1534094;92;21530;-57
2022/12/31 07:41:05;;;;;;;37.35;28.15;;;;;;;8.63;60.95;102839.01;1503828;93;21112;-57
2022/12/31 07:44:13;;;;;;;35.52;28.77;;;;;;;8.68;60.81;102829.16;1476105;96;21080;-57
2022/12/31 07:46:59;;;;;;;36.15;28.35;;;;;;;8.73;60.71;102822.77;1474021;96;21156;-57
2022/12/31 07:49:27;;;;;;;36.80;27.62;;;;;;;8.78;60.74;102819.80;1475507;95;21120;-57
2022/12/31 07:51:57;;;;;;;39.35;28.73;;;;;;;8.84;60.84;102826.44;1473035;96;21172;-57
2022/12/31 07:54:24;;;;;;;33.50;27.52;;;;;;;8.93;60.79;102835.67;1470268;95;21146;-57
2022/12/31 07:56:50;;;;;;;35.28;27.13;;;;;;;9.02;60.55;102834.55;1468659;97;21112;-57
2022/12/31 07:59:42;;;;;;;32.23;25.97;;;;;;;9.08;60.37;102839.84;1468078;97;21119;-57
2022/12/31 08:02:47;;;;;;;37.17;28.50;;;;;;;9.13;60.40;102842.08;1527077;92;21047;-57
2022/12/31 08:05:48;;;;;;;34.25;26.57;;;;;;;9.20;60.33;102846.55;1508247;93;21070;-57
2022/12/31 08:08:27;;;;;;;35.08;27.25;;;;;;;9.25;59.89;102848.81;1511547;93;21118;-57
2022/12/31 08:11:17;;;;;;;37.98;29.52;;;;;;;9.31;59.74;102856.70;1487126;96;21089;-57
2022/12/31 08:13:44;;;;;;;36.20;26.73;;;;;;;9.37;59.46;102861.13;1486786;96;21071;-57
2022/12/31 08:16:12;;;;;;;39.30;30.48;;;;;;;9.43;59.12;102862.52;1487152;96;21577;-57
2022/12/31 08:18:40;;;;;;;32.93;27.42;;;;;;;9.43;59.15;102869.89;1502769;95;21598;-57
2022/12/31 08:21:44;;;;;;;34.92;29.42;;;;;;;9.45;59.23;102878.59;1517632;94;21603;-57
2022/12/31 08:24:22;;;;;;;37.38;28.80;;;;;;;9.45;59.23;102881.19;1515077;94;21697;-58
2022/12/31 08:27:32;;;;;;;34.53;27.17;;;;;;;9.45;59.11;102879.89;1472244;97;21201;-58
2022/12/31 08:30:10;;;;;;;34.25;28.50;;;;;;;9.44;58.80;102871.63;1473535;96;21705;-57
2022/12/31 08:33:00;;;;;;;36.45;28.02;;;;;;;9.40;58.72;102876.33;1407520;101;21094;-57
2022/12/31 08:35:45;;;;;;;34.65;28.05;;;;;;;9.41;58.69;102872.02;1405824;101;21205;-57
2022/12/31 08:38:44;;;;;;;36.63;28.85;;;;;;;9.36;58.44;102875.83;1419397;101;21210;-57
2022/12/31 08:41:42;;;;;;;37.98;28.50;;;;;;;9.31;58.52;102868.81;1415879;100;21179;-57
2022/12/31 08:44:14;;;;;;;37.55;27.22;;;;;;;9.27;58.40;102870.50;1420226;100;21121;-57
2022/12/31 08:47:18;;;;;;;36.53;29.77;;;;;;;9.23;58.59;102875.19;1439452;98;21658;-57
2022/12/31 08:49:46;;;;;;;37.53;28.65;;;;;;;9.24;58.71;102870.84;1517716;94;21155;-57
2022/12/31 08:52:24;;;;;;;35.43;27.87;;;;;;;9.28;58.72;102869.63;1520515;94;21148;-57
2022/12/31 08:54:52;;;;;;;34.25;28.00;;;;;;;9.31;58.62;102864.50;1516035;94;21535;-57
2022/12/31 08:57:24;;;;;;;35.08;27.87;;;;;;;9.34;58.64;102859.34;1522083;94;21085;-57
2022/12/31 09:00:10;;;;;;;33.65;26.80;;;;;;;9.41;58.78;102852.11;1435791;99;21140;-57
2022/12/31 09:03:09;;;;;;;31.65;25.77;;;;;;;9.52;58.79;102848.39;1436086;99;21266;-57
2022/12/31 09:05:44;;;;;;;35.60;27.73;;;;;;;9.63;58.95;102854.19;1435941;98;21115;-57
2022/12/31 09:08:42;;;;;;;36.48;28.27;;;;;;;9.79;59.07;102855.28;1420084;101;21146;-57
2022/12/31 09:11:36;;;;;;;35.88;26.68;;;;;;;9.93;59.04;102859.40;1439367;100;21202;-57
2022/12/31 09:14:35;;;;;;;36.23;27.22;;;;;;;10.08;59.08;102845.28;1402201;102;21671;-57
2022/12/31 09:17:17;;;;;;;34.20;26.10;;;;;;;10.23;58.96;102842.92;1401727;102;21638;-57
2022/12/31 09:19:45;;;;;;;34.85;26.20;;;;;;;10.40;58.66;102844.02;1401802;102;21576;-57
2022/12/31 09:22:13;;;;;;;33.80;26.85;;;;;;;10.54;58.37;102846.35;1402741;101;21667;-57
2022/12/31 09:24:40;;;;;;;33.95;27.95;;;;;;;10.66;58.04;102838.67;1445214;99;21591;-57
2022/12/31 09:27:37;;;;;;;38.17;30.60;;;;;;;10.80;57.64;102838.84;1431390;100;21152;-57
2022/12/31 09:30:12;;;;;;;39.98;32.28;;;;;;;10.91;57.37;102836.78;1409131;102;21129;-57
2022/12/31 09:32:59;;;;;;;38.23;29.50;;;;;;;11.00;57.24;102833.39;1429250;99;21656;-57
2022/12/31 09:35:40;;;;;;;40.43;29.18;;;;;;;11.07;57.21;102827.36;1440174;96;21646;-57
2022/12/31 09:38:39;;;;;;;36.85;27.93;;;;;;;11.14;57.21;102833.09;1518379;94;21092;-57
2022/12/31 09:41:40;;;;;;;35.33;27.65;;;;;;;11.19;57.31;102821.83;1463776;96;21092;-57
2022/12/31 09:44:32;;;;;;;32.00;26.62;;;;;;;11.24;57.33;102813.64;1467054;96;21076;-57
2022/12/31 09:47:18;;;;;;;;;;;;;;;11.29;57.38;102808.01;1470888;96;21107;-57
2022/12/31 09:50:18;;;;;;;31.65;24.25;;;;;;;11.37;57.25;102814.61;1470038;97;20132;-57
2022/12/31 09:52:56;;;;;;;29.10;24.95;;;;;;;11.41;57.01;102808.13;1466626;98;21131;-58
2022/12/31 09:55:29;;;;;;;32.35;25.27;;;;;;;11.52;56.59;102803.42;1455002;98;21076;-58
2022/12/31 09:58:18;;;;;;;34.30;25.65;;;;;;;11.60;56.42;102810.86;1478137;97;21085;-57
2022/12/31 10:01:04;;;;;;;29.82;24.87;;;;;;;11.67;56.29;102810.05;1432331;99;21129;-58
2022/12/31 10:04:20;;;;;;;31.57;25.37;;;;;;;11.75;55.94;102817.06;1419359;100;21151;-57
2022/12/31 10:07:15;;;;;;;36.03;26.02;;;;;;;11.82;55.48;102820.59;1407370;101;21206;-57
2022/12/31 10:10:00;;;;;;;30.00;24.98;;;;;;;11.88;55.50;102812.80;1466313;97;21091;-57
2022/12/31 10:12:44;;;;;;;35.78;25.82;;;;;;;11.91;55.53;102811.52;1502782;95;21103;-57
2022/12/31 10:15:55;;;;;;;32.67;22.87;;;;;;;11.93;55.48;102798.91;1502601;95;21079;-57
2022/12/31 10:18:52;;;;;;;29.13;21.97;;;;;;;11.94;55.10;102797.17;1498156;95;21649;-57
2022/12/31 10:21:54;;;;;;;22.87;19.82;;;;;;;11.97;55.03;102795.90;1502889;95;21614;-58
2022/12/31 10:24:31;;;;;;;22.98;19.73;;;;;;;12.02;54.75;102794.16;1493275;95;21103;-57
2022/12/31 10:27:25;;;;;;;28.30;21.05;;;;;;;12.09;54.44;102792.03;1478049;97;21172;-57
2022/12/31 10:30:05;;;;;;;23.25;19.90;;;;;;;12.17;54.17;102785.11;1456619;97;21091;-58
2022/12/31 10:33:03;;;;;;;24.77;20.88;;;;;;;12.24;53.54;102779.06;1454398;98;21139;-57
2022/12/31 10:35:59;;;;;;;24.90;20.90;;;;;;;12.31;53.27;102760.34;1459716;97;21139;-57
2022/12/31 10:38:59;;;;;;;24.63;20.43;;;;;;;12.37;53.06;102759.94;1423318;100;21173;-57
2022/12/31 10:42:14;;;;;;;24.25;20.77;;;;;;;12.41;52.77;102752.55;1428673;97;21639;-57
2022/12/31 10:45:23;;;;;;;25.37;21.05;;;;;;;12.44;52.90;102755.18;1457992;97;21120;-57
2022/12/31 10:48:26;;;;;;;27.05;20.60;;;;;;;12.44;53.35;102751.69;1462904;97;21151;-57
2022/12/31 10:51:06;;;;;;;24.63;20.85;;;;;;;12.44;53.54;102751.27;1463532;97;21124;-57
2022/12/31 10:53:45;;;;;;;27.00;21.73;;;;;;;12.46;53.82;102744.30;1452890;98;21166;-57
2022/12/31 10:56:56;;;;;;;24.05;20.60;;;;;;;12.49;54.15;102751.28;1435961;98;21641;-57
2022/12/31 10:59:57;;;;;;;24.07;19.75;;;;;;;12.53;54.27;102746.04;1494021;96;21113;-57
2022/12/31 11:02:41;;;;;;;26.20;19.87;;;;;;;12.59;54.09;102742.13;1478773;95;21166;-57
2022/12/31 11:06:05;;;;;;;27.20;22.30;;;;;;;12.65;53.78;102746.05;1491538;94;21206;-57
2022/12/31 11:09:16;;;;;;;27.67;22.45;;;;;;;12.69;53.76;102750.88;1526157;92;21584;-57
2022/12/31 11:12:17;;;;;;;30.85;22.37;;;;;;;12.72;54.29;102751.73;1532403;92;21187;-57
2022/12/31 11:15:09;;;;;;;25.33;21.07;;;;;;;12.73;54.47;102754.80;1532817;92;21102;-57
2022/12/31 11:17:45;;;;;;;30.90;21.52;;;;;;;12.74;54.54;102760.45;1533038;92;21126;-58
2022/12/31 11:20:51;;;;;;;26.45;21.97;;;;;;;12.73;54.64;102756.53;1535462;92;21134;-57
2022/12/31 11:23:42;;;;;;;26.12;22.15;;;;;;;12.72;54.82;102747.81;1446297;99;21126;-57
2022/12/31 11:26:41;;;;;;;25.55;22.17;;;;;;;12.75;54.82;102741.73;1410541;102;21197;-56
2022/12/31 11:29:37;;;;;;;25.23;22.37;;;;;;;12.78;54.94;102743.02;1410465;102;21128;-57
2022/12/31 11:32:34;;;;;;;29.20;22.62;;;;;;;12.81;55.11;102741.73;1408318;102;21140;-57
2022/12/31 11:35:28;;;;;;;29.07;22.52;;;;;;;12.83;55.22;102731.73;1410453;102;21168;-57
2022/12/31 18:39:19;;;;;;;42.43;33.42;;;;;;;9.30;88.62;102813.79;1768311;80;21026;-58
2022/12/31 18:41:48;;;;;;;40.85;33.25;;;;;;;9.61;85.39;102805.20;1751533;81;21090;-58
2022/12/31 18:44:15;;;;;;;42.20;33.85;;;;;;;9.73;84.47;102806.67;1754547;80;22690;-58
2022/12/31 18:46:42;;;;;;;42.20;32.33;;;;;;;9.85;83.98;102807.26;1749149;81;21038;-58
2022/12/31 18:49:10;;;;;;;41.60;31.33;;;;;;;9.97;83.57;102811.77;1761292;80;21062;-57
2022/12/31 18:51:37;;;;;;;33.35;29.02;;;;;;;10.07;83.17;102805.42;1757857;80;21092;-58
2022/12/31 18:54:05;;;;;;;37.28;28.90;;;;;;;10.18;82.90;102802.98;1778748;80;21478;-57
2022/12/31 18:56:32;;;;;;;34.08;27.30;;;;;;;10.27;82.58;102792.25;1777051;80;21059;-58
2022/12/31 18:58:59;;;;;;;36.85;27.20;;;;;;;10.36;82.22;102786.29;1773878;80;21053;-58
2022/12/31 19:01:31;;;;;;;29.95;26.02;;;;;;;10.45;81.85;102783.34;1755206;80;20970;-58
2022/12/31 19:04:01;;;;;;;28.65;23.98;;;;;;;10.52;81.48;102777.36;1755542;79;21002;-57
2022/12/31 19:06:28;;;;;;;30.92;24.75;;;;;;;10.60;81.04;102774.41;1718539;82;21078;-58
2022/12/31 19:08:55;;;;;;;27.15;22.87;;;;;;;10.69;80.61;102771.03;1687166;84;21601;-57
2022/12/31 19:11:22;;;;;;;26.50;22.50;;;;;;;10.76;80.17;102767.61;1678568;84;21011;-57